Time;durP1;ratioP1;P1;durP2;ratioP2;P2;SDS_P1;SDS_P2;PMS_P1;PMS_P2;Temp;Humidity;BMP_temperature;BMP_pressure;BME280_temperature;BME280_humidity;BME280_pressure;Samples;Min_cycle;Max_cycle;Signal;HPM_P1;HPM_P2
2021/05/29 00:00:41;;;;;;;;;;;;;;;9.70;75.11;100673.67;104352;1096;78463;-57
2021/05/29 00:02:55;;;;;;;;;;;;;;;9.72;75.30;100677.06;104308;1095;77822;-59
2021/05/29 00:05:06;;;;;;;;;;;;;;;9.75;75.27;100684.77;104323;1096;77636;-59
2021/05/29 00:07:12;;;;;;;;;;;;;;;9.82;75.36;100682.22;104362;1096;77891;-59
2021/05/29 00:09:17;;;;;;;;;;;;;;;9.88;75.08;100676.97;104325;1096;77453;-60
2021/05/29 00:11:23;;;;;;;;;;;;;;;9.90;75.42;100671.38;104322;1097;77838;-59
2021/05/29 00:13:29;;;;;;;;;;;;;;;9.96;75.30;100676.06;104331;1096;77331;-59
2021/05/29 00:15:35;;;;;;;;;;;;;;;10.05;75.41;100675.81;104359;1096;77599;-60
2021/05/29 00:17:40;;;;;;;;;;;;;;;10.07;75.58;100679.20;104320;1096;78107;-56
2021/05/29 00:19:46;;;;;;;;;;;;;;;10.09;75.45;100682.55;104255;1100;78293;-57
2021/05/29 00:21:51;;;;;;;;;;;;;;;10.08;75.51;100678.16;104360;1096;77619;-57
2021/05/29 00:23:56;;;;;;;;;;;;;;;10.17;75.53;100676.28;104369;1096;77774;-57
2021/05/29 00:26:02;;;;;;;;;;;;;;;10.20;75.71;100677.77;104336;1095;77643;-57
2021/05/29 00:28:09;;;;;;;;;;;;;;;10.23;75.64;100677.42;104311;1096;77028;-59
2021/05/29 00:30:16;;;;;;;;;;;;;;;10.25;75.71;100669.97;104306;1096;76983;-59
2021/05/29 00:32:21;;;;;;;;;;;;;;;10.27;75.71;100670.65;104344;1096;78231;-57
2021/05/29 00:34:26;;;;;;;;;;;;;;;10.29;75.68;100676.70;104339;1096;78132;-56
2021/05/29 00:36:32;;;;;;;;;;;;;;;10.35;75.83;100678.69;104355;1095;77149;-57
2021/05/29 00:38:37;;;;;;;;;;;;;;;10.38;75.64;100671.04;104342;1096;78131;-59
2021/05/29 00:40:42;;;;;;;;;;;;;;;10.43;75.75;100667.81;104311;1096;77638;-59
2021/05/29 00:42:48;;;;;;;;;;;;;;;10.45;75.81;100677.41;104338;1095;78257;-56
2021/05/29 00:44:55;;;;;;;;;;;;;;;10.50;75.96;100676.86;104329;1096;78235;-56
2021/05/29 00:47:01;;;;;;;;;;;;;;;10.54;75.76;100675.48;104329;1096;78272;-57
2021/05/29 00:49:06;;;;;;;;;;;;;;;10.58;76.22;100671.38;104335;1096;76711;-60
2021/05/29 00:51:11;;;;;;;;;;;;;;;10.59;76.19;100673.07;104320;1096;78143;-60
2021/05/29 00:53:17;;;;;;;;;;;;;;;10.62;76.05;100673.55;104323;1096;77969;-57
2021/05/29 00:55:22;;;;;;;;;;;;;;;10.66;76.29;100669.45;104365;1096;77041;-57
2021/05/29 00:57:27;;;;;;;;;;;;;;;10.67;76.26;100670.30;104335;1096;77029;-59
2021/05/29 00:59:33;;;;;;;;;;;;;;;10.71;76.36;100671.63;104353;1096;77291;-59
2021/05/29 01:01:38;;;;;;;;;;;;;;;10.74;76.45;100670.41;104327;1096;77107;-60
2021/05/29 01:03:43;;;;;;;;;;;;;;;10.75;76.50;100672.07;104283;1095;77677;-56
2021/05/29 01:05:52;;;;;;;;;;;;;;;10.75;76.26;100675.62;104313;1096;77031;-56
2021/05/29 01:07:57;;;;;;;;;;;;;;;10.71;76.70;100677.02;104339;1096;77824;-59
2021/05/29 01:10:04;;;;;;;;;;;;;;;10.78;76.56;100675.25;104322;1096;76540;-59
2021/05/29 01:12:17;;;;;;;;;;;;;;;10.80;76.43;100677.76;104326;1096;77715;-59
2021/05/29 01:14:23;;;;;;;;;;;;;;;10.82;76.30;100673.03;104341;1096;77383;-59
2021/05/29 01:16:43;;;;;;;;;;;;;;;10.84;76.61;100666.42;104331;1096;76940;-59
2021/05/29 01:18:49;;;;;;;;;;;;;;;10.84;76.49;100669.12;104326;1097;77977;-60
2021/05/29 01:21:00;;;;;;;;;;;;;;;10.88;76.47;100667.70;104305;1096;77925;-60
2021/05/29 01:23:07;;;;;;;;;;;;;;;10.90;76.36;100667.55;104335;1096;77346;-58
2021/05/29 01:25:17;;;;;;;;;;;;;;;10.93;76.58;100661.77;104380;1096;77058;-58
2021/05/29 01:27:22;;;;;;;;;;;;;;;10.99;76.37;100663.70;104330;1096;78381;-59
2021/05/29 01:29:29;;;;;;;;;;;;;;;10.98;76.56;100668.30;104340;1095;77503;-58
2021/05/29 01:31:34;;;;;;;;;;;;;;;11.00;76.37;100659.98;104270;1096;77055;-58
2021/05/29 01:33:39;;;;;;;;;;;;;;;11.03;76.54;100673.98;104319;1096;77693;-60
2021/05/29 01:35:45;;;;;;;;;;;;;;;11.04;76.62;100678.34;104392;1096;76808;-60
2021/05/29 01:37:51;;;;;;;;;;;;;;;11.05;76.48;100674.63;104352;1096;78378;-58
2021/05/29 01:39:56;;;;;;;;;;;;;;;11.06;76.56;100673.61;104300;1096;78205;-58
2021/05/29 01:42:02;;;;;;;;;;;;;;;11.03;76.58;100673.98;104337;1096;77992;-58
2021/05/29 01:44:10;;;;;;;;;;;;;;;11.06;76.53;100676.32;104312;1095;78604;-60
2021/05/29 01:46:16;;;;;;;;;;;;;;;11.05;76.48;100669.22;104365;1096;77155;-60
2021/05/29 01:48:21;;;;;;;;;;;;;;;11.09;76.29;100670.55;104326;1096;77813;-60
2021/05/29 01:50:27;;;;;;;;;;;;;;;11.07;76.48;100675.27;104322;1096;78608;-60
2021/05/29 01:52:50;;;;;;;;;;;;;;;11.05;76.46;100674.63;104367;1096;78101;-60
2021/05/29 01:54:55;;;;;;;;;;;;;;;11.06;76.43;100679.02;104335;1096;78288;-60
2021/05/29 01:57:00;;;;;;;;;;;;;;;11.06;76.60;100681.73;104357;1096;76614;-60
2021/05/29 01:59:05;;;;;;;;;;;;;;;11.03;76.57;100676.69;104356;1096;77546;-56
2021/05/29 02:01:12;;;;;;;;;;;;;;;11.03;76.82;100675.84;104349;1096;78226;-57
2021/05/29 02:03:17;;;;;;;;;;;;;;;10.97;76.75;100681.98;104306;1096;78257;-57
2021/05/29 02:05:25;;;;;;;;;;;;;;;10.99;76.79;100674.52;104331;1096;77075;-57
2021/05/29 02:07:30;;;;;;;;;;;;;;;10.96;76.83;100670.33;104326;1096;77197;-57
2021/05/29 02:09:35;;;;;;;;;;;;;;;10.91;77.30;100677.30;104336;1096;77508;-57
2021/05/29 02:11:42;;;;;;;;;;;;;;;10.89;76.91;100679.36;104277;1099;77545;-57
2021/05/29 02:13:47;;;;;;;;;;;;;;;10.86;77.09;100667.06;104326;1096;76693;-57
2021/05/29 02:15:53;;;;;;;;;;;;;;;10.88;77.24;100681.22;104343;1096;77278;-57
2021/05/29 02:17:59;;;;;;;;;;;;;;;10.89;77.08;100674.80;104382;1096;78825;-59
2021/05/29 02:20:08;;;;;;;;;;;;;;;10.90;77.25;100675.65;104327;1096;78152;-60
2021/05/29 02:22:13;;;;;;;;;;;;;;;10.88;77.22;100678.52;104354;1096;76813;-60
2021/05/29 02:24:18;;;;;;;;;;;;;;;10.84;77.75;100685.33;104356;1096;76943;-60
2021/05/29 02:26:24;;;;;;;;;;;;;;;10.87;77.12;100682.27;104346;1096;78197;-60
2021/05/29 02:28:33;;;;;;;;;;;;;;;10.89;77.05;100685.62;104338;1096;78035;-58
2021/05/29 02:30:38;;;;;;;;;;;;;;;10.89;77.24;100684.77;104355;1096;78058;-58
2021/05/29 02:32:43;;;;;;;;;;;;;;;10.89;77.43;100685.62;104349;1095;76709;-58
2021/05/29 02:34:49;;;;;;;;;;;;;;;10.88;77.38;100681.22;104354;1095;77019;-59
2021/05/29 02:36:57;;;;;;;;;;;;;;;10.88;77.51;100683.08;104329;1096;77654;-59
2021/05/29 02:39:02;;;;;;;;;;;;;;;10.88;77.53;100677.67;104308;1096;77389;-57
2021/05/29 02:41:10;;;;;;;;;;;;;;;10.89;77.49;100685.62;104322;1095;77814;-57
2021/05/29 02:43:15;;;;;;;;;;;;;;;10.86;77.53;100690.55;104355;1096;77088;-60
2021/05/29 02:45:20;;;;;;;;;;;;;;;10.92;77.39;100695.22;104315;1096;77795;-60
2021/05/29 02:47:25;;;;;;;;;;;;;;;10.94;77.35;100696.71;104349;1096;76645;-58
2021/05/29 02:49:30;;;;;;;;;;;;;;;10.97;77.41;100699.05;104330;1096;77939;-58
2021/05/29 02:51:35;;;;;;;;;;;;;;;10.95;77.52;100702.95;104344;1097;77805;-58
2021/05/29 02:53:42;;;;;;;;;;;;;;;10.97;77.25;100707.16;104342;1096;77990;-58
2021/05/29 02:55:48;;;;;;;;;;;;;;;11.01;76.96;100703.08;104356;1096;77374;-58
2021/05/29 02:57:54;;;;;;;;;;;;;;;11.02;77.40;100704.73;104346;1097;78788;-60
2021/05/29 02:59:59;;;;;;;;;;;;;;;11.00;77.17;100700.54;104362;1096;76783;-60
2021/05/29 03:02:05;;;;;;;;;;;;;;;11.04;77.19;100699.16;104318;1096;80133;-60
2021/05/29 03:04:11;;;;;;;;;;;;;;;11.00;77.36;100703.24;104348;1096;78101;-58
2021/05/29 03:06:16;;;;;;;;;;;;;;;11.04;77.22;100705.38;104321;1095;79371;-58
2021/05/29 03:08:22;;;;;;;;;;;;;;;11.07;77.28;100702.31;104313;1095;77431;-60
2021/05/29 03:10:28;;;;;;;;;;;;;;;11.07;77.25;100710.42;104332;1096;78415;-60
2021/05/29 03:12:36;;;;;;;;;;;;;;;11.00;77.34;100703.24;104312;1096;77492;-58
2021/05/29 03:14:41;;;;;;;;;;;;;;;10.97;77.16;100709.02;104321;1096;78017;-58
2021/05/29 03:16:50;;;;;;;;;;;;;;;10.97;77.32;100712.56;104358;1096;78075;-58
2021/05/29 03:18:56;;;;;;;;;;;;;;;11.01;77.00;100711.19;104360;1096;76795;-60
2021/05/29 03:21:01;;;;;;;;;;;;;;;11.05;77.05;100714.34;104347;1096;78005;-60
2021/05/29 03:23:07;;;;;;;;;;;;;;;11.08;77.22;100705.86;104338;1096;77182;-60
2021/05/29 03:25:15;;;;;;;;;;;;;;;11.05;77.12;100711.63;104367;1095;78046;-60
2021/05/29 03:27:20;;;;;;;;;;;;;;;11.03;76.98;100709.13;104346;1096;78401;-59
2021/05/29 03:29:25;;;;;;;;;;;;;;;11.05;76.94;100711.63;104314;1096;77091;-60
2021/05/29 03:31:31;;;;;;;;;;;;;;;11.02;76.97;100707.44;104299;1099;76673;-58
2021/05/29 03:33:36;;;;;;;;;;;;;;;10.98;77.07;100699.89;104320;1096;76743;-56
2021/05/29 03:35:42;;;;;;;;;;;;;;;11.01;76.99;100705.78;104345;1097;77324;-56
2021/05/29 03:37:47;;;;;;;;;;;;;;;11.00;77.09;100704.09;104338;1096;78407;-58
2021/05/29 03:39:52;;;;;;;;;;;;;;;10.99;77.18;100701.55;104321;1097;77518;-59
2021/05/29 03:41:57;;;;;;;;;;;;;;;11.01;77.03;100700.38;104357;1096;76665;-59
2021/05/29 03:44:03;;;;;;;;;;;;;;;11.02;76.90;100698.48;104306;1096;77568;-56
2021/05/29 03:46:08;;;;;;;;;;;;;;;11.10;76.99;100704.64;104336;1096;76678;-56
2021/05/29 03:48:13;;;;;;;;;;;;;;;11.12;77.12;100697.19;104319;1096;77689;-57
2021/05/29 03:50:21;;;;;;;;;;;;;;;11.09;77.13;100689.47;104360;1097;77741;-56
2021/05/29 03:52:26;;;;;;;;;;;;;;;11.10;77.10;100703.80;104341;1096;76799;-59
2021/05/29 03:54:31;;;;;;;;;;;;;;;11.13;76.87;100695.33;104341;1096;77034;-58
2021/05/29 03:56:36;;;;;;;;;;;;;;;11.13;76.99;100698.02;104364;1096;77515;-58
2021/05/29 03:58:41;;;;;;;;;;;;;;;11.18;76.83;100696.45;104332;1095;77402;-56
2021/05/29 04:00:47;;;;;;;;;;;;;;;11.25;76.78;100702.80;104321;1096;77782;-57
2021/05/29 04:02:52;;;;;;;;;;;;;;;11.29;76.75;100697.03;104354;1096;77479;-57
2021/05/29 04:04:57;;;;;;;;;;;;;;;11.38;76.72;100690.47;104361;1096;77268;-57
2021/05/29 04:07:03;;;;;;;;;;;;;;;11.43;76.53;100688.89;104315;1096;78027;-57
2021/05/29 04:09:09;;;;;;;;;;;;;;;11.48;76.43;100696.46;104316;1096;78469;-56
2021/05/29 04:11:14;;;;;;;;;;;;;;;11.51;76.43;100691.48;104354;1096;77917;-57
2021/05/29 04:13:19;;;;;;;;;;;;;;;11.50;76.26;100694.39;104324;1096;77391;-58
2021/05/29 04:15:25;;;;;;;;;;;;;;;11.54;76.26;100688.41;104329;1096;77693;-58
2021/05/29 04:17:30;;;;;;;;;;;;;;;11.56;76.14;100688.23;104331;1096;77368;-58
2021/05/29 04:19:35;;;;;;;;;;;;;;;11.60;75.96;100684.11;104344;1096;77877;-59
2021/05/29 04:21:40;;;;;;;;;;;;;;;11.65;75.80;100684.38;104343;1097;77610;-59
2021/05/29 04:23:45;;;;;;;;;;;;;;;11.78;75.75;100681.89;104328;1096;77318;-57
2021/05/29 04:25:53;;;;;;;;;;;;;;;11.90;75.60;100683.05;104347;1096;77167;-57
2021/05/29 04:27:59;;;;;;;;;;;;;;;11.95;75.74;100688.73;104309;1096;77068;-59
2021/05/29 04:30:06;;;;;;;;;;;;;;;12.03;75.63;100688.61;104335;1095;77202;-59
2021/05/29 04:32:11;;;;;;;;;;;;;;;12.21;75.50;100688.19;104344;1096;78470;-59
2021/05/29 04:34:17;;;;;;;;;;;;;;;12.44;75.35;100691.55;104326;1096;76657;-57
2021/05/29 04:36:22;;;;;;;;;;;;;;;12.70;74.36;100699.06;104307;1096;76864;-57
2021/05/29 04:38:27;;;;;;;;;;;;;;;12.93;74.14;100705.11;104322;1097;78521;-59
2021/05/29 04:40:33;;;;;;;;;;;;;;;13.21;73.44;100696.98;104344;1097;77689;-60
2021/05/29 04:42:39;;;;;;;;;;;;;;;13.42;73.21;100696.90;104373;1096;77602;-57
2021/05/29 04:44:44;;;;;;;;;;;;;;;13.45;72.03;100694.63;104311;1096;77904;-58
2021/05/29 04:46:51;;;;;;;;;;;;;;;13.60;72.02;100699.91;104355;1096;77870;-57
2021/05/29 04:48:57;;;;;;;;;;;;;;;13.55;71.07;100705.95;104326;1096;77201;-59
2021/05/29 04:51:12;;;;;;;;;;;;;;;13.49;70.75;100695.89;104323;1096;78044;-60
2021/05/29 04:53:17;;;;;;;;;;;;;;;13.46;70.50;100699.00;104334;1096;77343;-58
2021/05/29 04:55:25;;;;;;;;;;;;;;;13.40;70.15;100699.83;104348;1096;78173;-57
2021/05/29 04:57:31;;;;;;;;;;;;;;;13.25;69.16;100704.52;104302;1096;77748;-60
2021/05/29 04:59:36;;;;;;;;;;;;;;;13.05;69.63;100708.93;104350;1096;77329;-60
2021/05/29 05:01:41;;;;;;;;;;;;;;;12.94;69.57;100706.77;104330;1095;77513;-59
2021/05/29 05:03:46;;;;;;;;;;;;;;;12.85;68.98;100707.96;104339;1096;77462;-60
2021/05/29 05:05:52;;;;;;;;;;;;;;;12.87;68.94;100695.04;104315;1096;77183;-59
2021/05/29 05:07:57;;;;;;;;;;;;;;;13.08;69.52;100696.88;104349;1096;77906;-59
2021/05/29 05:10:03;;;;;;;;;;;;;;;13.30;68.57;100706.63;104315;1096;76710;-60
2021/05/29 05:12:09;;;;;;;;;;;;;;;13.42;68.33;100703.17;104293;1096;77885;-60
2021/05/29 05:14:14;;;;;;;;;;;;;;;13.50;68.19;100700.29;104367;1097;77165;-60
2021/05/29 05:16:20;;;;;;;;;;;;;;;13.45;67.77;100694.63;104381;1096;77857;-59
2021/05/29 05:18:25;;;;;;;;;;;;;;;13.70;67.80;100697.67;104322;1096;78196;-59
2021/05/29 05:20:30;;;;;;;;;;;;;;;14.00;67.07;100692.77;104316;1097;77038;-59
2021/05/29 05:22:36;;;;;;;;;;;;;;;14.20;66.81;100696.39;104307;1096;78320;-59
2021/05/29 05:24:41;;;;;;;;;;;;;;;14.32;66.30;100692.03;104340;1097;76924;-59
2021/05/29 05:26:46;;;;;;;;;;;;;;;14.45;65.50;100702.11;104359;1096;77790;-60
2021/05/29 05:28:51;;;;;;;;;;;;;;;14.53;65.09;100708.16;104329;1096;77827;-60
2021/05/29 05:30:58;;;;;;;;;;;;;;;15.30;65.04;100704.77;104326;1096;78287;-60
2021/05/29 05:33:05;;;;;;;;;;;;;;;16.96;64.58;100697.23;104349;1097;78004;-60
2021/05/29 05:35:15;;;;;;;;;;;;;;;19.14;62.47;100698.78;104346;1096;76820;-60
2021/05/29 05:37:20;;;;;;;;;;;;;;;20.74;58.10;100702.42;104347;1096;77104;-58
2021/05/29 05:39:25;;;;;;;;;;;;;;;21.87;55.57;100690.95;104357;1096;77169;-57
2021/05/29 05:41:30;;;;;;;;;;;;;;;22.94;52.49;100699.27;104343;1096;77392;-58
2021/05/29 05:43:36;;;;;;;;;;;;;;;23.59;49.75;100694.23;104308;1096;77908;-60
2021/05/29 05:45:42;;;;;;;;;;;;;;;24.34;47.95;100693.70;104310;1097;77384;-59
2021/05/29 05:47:47;;;;;;;;;;;;;;;24.46;44.06;100686.02;104322;1096;78198;-59
2021/05/29 05:49:53;;;;;;;;;;;;;;;24.76;42.34;100696.27;104318;1096;78314;-60
2021/05/29 05:51:58;;;;;;;;;;;;;;;24.27;41.71;100695.08;104328;1096;77453;-59
2021/05/29 05:54:04;;;;;;;;;;;;;;;22.97;43.33;100696.80;104346;1096;77781;-57
2021/05/29 05:56:10;;;;;;;;;;;;;;;21.54;43.37;100695.45;104348;1096;77443;-57
2021/05/29 05:58:15;;;;;;;;;;;;;;;20.62;45.39;100709.88;104335;1096;76883;-60
2021/05/29 06:00:21;;;;;;;;;;;;;;;21.04;45.93;100697.44;104334;1095;77105;-59
2021/05/29 06:02:27;;;;;;;;;;;;;;;22.44;44.94;100700.44;104345;1096;78432;-58
2021/05/29 06:04:32;;;;;;;;;;;;;;;24.21;41.97;100693.40;104306;1096;77945;-57
2021/05/29 06:06:37;;;;;;;;;;;;;;;24.52;41.38;100689.61;104326;1096;77108;-57
2021/05/29 06:08:42;;;;;;;;;;;;;;;25.08;40.36;100688.55;104342;1096;80103;-57
2021/05/29 06:10:48;;;;;;;;;;;;;;;25.97;39.35;100692.48;104315;1096;77400;-57
2021/05/29 06:12:54;;;;;;;;;;;;;;;26.62;38.33;100696.84;104344;1096;77266;-57
2021/05/29 06:19:47;;;;;;;;;;;;;;;26.93;36.12;100695.53;104334;1097;77094;-58
2021/05/29 06:21:55;;;;;;;;;;;;;;;25.94;35.64;100706.90;104307;1096;77732;-58
2021/05/29 06:24:04;;;;;;;;;;;;;;;23.97;36.51;100713.18;104358;1096;77411;-57
2021/05/29 06:26:10;;;;;;;;;;;;;;;22.89;37.88;100705.55;104314;1097;78551;-57
2021/05/29 06:28:15;;;;;;;;;;;;;;;21.97;39.28;100697.44;104315;1096;76866;-58
2021/05/29 06:30:21;;;;;;;;;;;;;;;21.74;39.81;100706.73;104364;1096;76602;-58
2021/05/29 06:32:27;;;;;;;;;;;;;;;21.84;40.69;100705.21;99067;1096;3011178;-57
2021/05/29 06:34:32;;;;;;;;;;;;;;;22.28;41.24;100709.59;104339;1096;64328;-57
2021/05/29 06:36:37;;;;;;;;;;;;;;;23.10;39.70;100714.83;104337;1095;76936;-57
2021/05/29 06:38:42;;;;;;;;;;;;;;;23.36;39.66;100714.74;104381;1097;78282;-63
2021/05/29 06:40:47;;;;;;;;;;;;;;;23.85;39.40;100706.20;104356;1096;77496;-62
2021/05/29 06:42:52;;;;;;;;;;;;;;;23.95;38.73;100695.23;104327;1096;77571;-59
2021/05/29 06:44:58;;;;;;;;;;;;;;;25.30;38.62;100695.73;104330;1096;77396;-60
2021/05/29 06:47:03;;;;;;;;;;;;;;;25.40;37.77;100698.47;104320;1096;78238;-61
2021/05/29 06:49:14;;;;;;;;;;;;;;;24.31;36.89;100708.06;104326;1097;76860;-63
2021/05/29 06:51:32;;;;;;;;;;;;;;;25.22;37.81;100697.09;104337;1096;78307;-62
2021/05/29 06:53:41;;;;;;;;;;;;;;;26.57;35.78;100699.66;104312;1096;78159;-60
2021/05/29 07:00:45;;;;;;;;;;;;;;;28.07;30.19;100702.15;104140;1096;77022;-61
2021/05/29 07:02:50;;;;;;;;;;;;;;;28.61;31.85;100707.20;104396;1096;77600;-60
2021/05/29 07:04:55;;;;;;;;;;;;;;;29.42;31.10;100694.77;104343;1096;77579;-58
2021/05/29 07:07:00;;;;;;;;;;;;;;;29.96;30.82;100696.77;104329;1096;77289;-57
2021/05/29 07:09:06;;;;;;;;;;;;;;;29.56;29.80;100695.58;104344;1096;78343;-60
2021/05/29 07:11:11;;;;;;;;;;;;;;;27.22;29.68;100707.46;104322;1097;78272;-59
2021/05/29 07:13:17;;;;;;;;;;;;;;;25.78;31.66;100704.20;104351;1096;78768;-57
2021/05/29 07:15:26;;;;;;;;;;;;;;;25.58;32.46;100703.42;104310;1100;77488;-57
2021/05/29 07:17:39;;;;;;;;;;;;;;;25.20;32.73;100699.32;104320;1096;76900;-58
2021/05/29 07:19:44;;;;;;;;;;;;;;;25.11;33.09;100712.04;104315;1096;78243;-59
2021/05/29 07:21:51;;;;;;;;;;;;;;;25.14;32.50;100715.09;104276;1096;77778;-58
2021/05/29 07:23:56;;;;;;;;;;;;;;;24.34;33.23;100714.97;104329;1096;76961;-60
2021/05/29 07:26:02;;;;;;;;;;;;;;;24.91;33.79;100710.14;104316;1096;78263;-60
2021/05/29 07:28:07;;;;;;;;;;;;;;;25.95;32.84;100709.41;104306;1096;77069;-60
2021/05/29 07:30:15;;;;;;;;;;;;;;;27.11;29.29;100700.38;104287;1096;78215;-60
2021/05/29 07:32:20;;;;;;;;;;;;;;;26.71;30.70;100700.66;104327;1097;76780;-59
2021/05/29 07:34:25;;;;;;;;;;;;;;;25.45;30.72;100710.34;104323;1096;76749;-58
2021/05/29 07:36:32;;;;;;;;;;;;;;;23.61;32.63;100711.34;104375;1095;77624;-61
2021/05/29 07:38:37;;;;;;;;;;;;;;;22.32;33.70;100711.59;104215;1096;77180;-59
2021/05/29 07:40:42;;;;;;;;;;;;;;;21.34;35.63;100717.17;104217;1096;78207;-59
2021/05/29 07:42:48;;;;;;;;;;;;;;;20.72;36.59;100719.13;104282;1096;76867;-59
2021/05/29 07:44:53;;;;;;;;;;;;;;;20.29;37.92;100725.20;104345;1096;77627;-58
2021/05/29 07:46:58;;;;;;;;;;;;;;;20.00;38.61;100731.70;104357;1096;76868;-58
2021/05/29 07:49:05;;;;;;;;;;;;;;;19.32;39.53;100729.63;104343;1096;77963;-58
2021/05/29 07:51:11;;;;;;;;;;;;;;;18.80;40.79;100723.16;104314;1096;76842;-58
2021/05/29 07:53:16;;;;;;;;;;;;;;;19.27;41.90;100721.30;104288;1096;77913;-58
2021/05/29 07:55:22;;;;;;;;;;;;;;;20.13;40.70;100730.60;104326;1096;77959;-58
2021/05/29 07:57:27;;;;;;;;;;;;;;;20.44;40.28;100716.41;104353;1097;77141;-59
2021/05/29 07:59:33;;;;;;;;;;;;;;;20.70;40.20;100720.45;104272;1099;78033;-59
2021/05/29 08:01:39;;;;;;;;;;;;;;;21.52;40.35;100714.13;104380;1096;77848;-59
2021/05/29 08:03:44;;;;;;;;;;;;;;;22.69;39.18;100713.66;104284;1100;77354;-59
2021/05/29 08:05:55;;;;;;;;;;;;;;;23.21;38.24;100717.38;104278;1097;77820;-59
2021/05/29 08:08:00;;;;;;;;;;;;;;;23.02;37.24;100705.11;104333;1096;77554;-58
2021/05/29 08:10:07;;;;;;;;;;;;;;;22.55;37.60;100699.42;104350;1096;78010;-58
2021/05/29 08:12:13;;;;;;;;;;;;;;;21.49;37.13;100709.13;104333;1096;77248;-58
2021/05/29 08:14:21;;;;;;;;;;;;;;;20.63;38.08;100717.05;104314;1096;78230;-60
2021/05/29 08:16:26;;;;;;;;;;;;;;;19.77;39.19;100715.32;104312;1096;77443;-61
2021/05/29 08:18:32;;;;;;;;;;;;;;;19.02;39.72;100719.84;104321;1096;78129;-59
2021/05/29 08:20:38;;;;;;;;;;;;;;;18.64;40.66;100723.00;104334;1096;77214;-59
2021/05/29 08:22:43;;;;;;;;;;;;;;;18.05;41.38;100721.89;104323;1096;76658;-59
2021/05/29 08:24:51;;;;;;;;;;;;;;;17.79;41.72;100716.77;104315;1095;78327;-59
2021/05/29 08:26:56;;;;;;;;;;;;;;;17.62;42.68;100721.17;104324;1096;77622;-60
2021/05/29 08:29:01;;;;;;;;;;;;;;;17.44;43.56;100723.88;104377;1096;78052;-58
2021/05/29 08:31:07;;;;;;;;;;;;;;;17.22;44.41;100728.08;104392;1096;77429;-60
2021/05/29 08:33:12;;;;;;;;;;;;;;;17.28;44.35;100721.73;104315;1096;77849;-58
2021/05/29 08:35:20;;;;;;;;;;;;;;;17.68;44.33;100712.07;104323;1097;77942;-58
2021/05/29 08:37:25;;;;;;;;;;;;;;;18.06;44.89;100720.84;104311;1096;77638;-59
2021/05/29 08:39:30;;;;;;;;;;;;;;;18.49;44.74;100715.20;104309;1095;76897;-58
2021/05/29 08:41:36;;;;;;;;;;;;;;;18.77;44.21;100715.41;104337;1096;77451;-58
2021/05/29 08:43:45;;;;;;;;;;;;;;;19.16;44.08;100718.55;104338;1096;76958;-59
2021/05/29 08:45:50;;;;;;;;;;;;;;;20.13;44.41;100714.14;104387;1096;77905;-58
2021/05/29 08:47:59;;;;;;;;;;;;;;;21.01;42.97;100704.23;104339;1096;76928;-58
2021/05/29 08:50:06;;;;;;;;;;;;;;;21.78;42.45;100707.88;104325;1096;76996;-58
2021/05/29 08:52:11;;;;;;;;;;;;;;;21.75;41.03;100711.13;104324;1097;76656;-58
2021/05/29 08:54:17;;;;;;;;;;;;;;;22.12;40.20;100707.77;104310;1096;77257;-59
2021/05/29 08:56:22;;;;;;;;;;;;;;;21.80;39.59;100704.88;104353;1096;78076;-59
2021/05/29 08:58:29;;;;;;;;;;;;;;;22.17;39.69;100710.58;104309;1095;77837;-60
2021/05/29 09:00:35;;;;;;;;;;;;;;;23.12;38.27;100707.13;104273;1097;78002;-60
2021/05/29 09:03:01;;;;;;;;;;;;;;;23.05;37.72;100704.58;104369;1096;78384;-57
2021/05/29 09:05:14;;;;;;;;;;;;;;;22.37;37.03;100707.22;104357;1097;77723;-59
2021/05/29 09:07:26;;;;;;;;;;;;;;;21.29;38.36;100711.57;104372;1096;77208;-57
2021/05/29 09:09:32;;;;;;;;;;;;;;;20.64;38.46;100715.95;104343;1097;77908;-55
2021/05/29 09:11:46;;;;;;;;;;;;;;;19.90;39.20;100715.88;104345;1096;78142;-55
2021/05/29 09:13:52;;;;;;;;;;;;;;;19.06;39.83;100716.42;104329;1096;77361;-58
2021/05/29 09:15:58;;;;;;;;;;;;;;;18.69;40.86;100717.64;104318;1096;80406;-58
2021/05/29 09:18:04;;;;;;;;;;;;;;;18.50;41.32;100719.63;104322;1097;78217;-59
2021/05/29 09:20:14;;;;;;;;;;;;;;;18.34;42.08;100712.05;104339;1096;78600;-58
2021/05/29 09:22:23;;;;;;;;;;;;;;;18.15;42.82;100718.63;104366;1095;78262;-59
2021/05/29 09:24:28;;;;;;;;;;;;;;;18.15;43.75;100708.53;104325;1095;77295;-59
2021/05/29 09:26:45;;;;;;;;;;;;;;;18.25;44.13;100705.23;104335;1095;78561;-58
2021/05/29 09:28:52;;;;;;;;;;;;;;;18.30;44.53;100710.83;104283;1100;78211;-55
2021/05/29 09:30:57;;;;;;;;;;;;;;;18.39;45.40;100705.88;104332;1095;77731;-56
2021/05/29 09:33:11;;;;;;;;;;;;;;;18.27;44.96;100706.66;104344;1096;77906;-55
2021/05/29 09:35:19;;;;;;;;;;;;;;;18.26;45.96;100713.22;104317;1096;78106;-55
2021/05/29 09:37:27;;;;;;;;;;;;;;;18.42;45.75;100708.98;104333;1096;77706;-54
2021/05/29 09:39:33;;;;;;;;;;;;;;;18.64;45.72;100712.89;104362;1095;77437;-54
2021/05/29 09:41:42;;;;;;;;;;;;;;;18.65;45.37;100711.80;104346;1096;77092;-53
2021/05/29 09:43:59;;;;;;;;;;;;;;;18.54;44.84;100717.27;104304;1096;77273;-55
2021/05/29 09:46:05;;;;;;;;;;;;;;;18.39;45.01;100712.18;104337;1096;76640;-55
2021/05/29 09:48:16;;;;;;;;;;;;;;;18.32;44.72;100716.09;104358;1096;77801;-55
2021/05/29 09:50:21;;;;;;;;;;;;;;;17.97;45.30;100719.48;104316;1096;77357;-55
2021/05/29 09:52:36;;;;;;;;;;;;;;;17.90;45.27;100713.27;104325;1097;77099;-60
2021/05/29 09:54:50;;;;;;;;;;;;;;;17.79;45.48;100721.40;104333;1096;76546;-60
2021/05/29 09:57:05;;;;;;;;;;;;;;;17.78;45.89;100720.55;104330;1096;77494;-60
2021/05/29 09:59:11;;;;;;;;;;;;;;;17.80;45.23;100712.15;104345;1097;77750;-57
2021/05/29 10:01:51;;;;;;;;;;;;;;;18.39;46.13;100720.39;104339;1095;77177;-58
2021/05/29 10:03:56;;;;;;;;;;;;;;;18.80;44.63;100719.58;104297;1096;79359;-54
2021/05/29 10:06:11;;;;;;;;;;;;;;;18.69;44.06;100712.17;104323;1096;77013;-54
2021/05/29 10:08:19;;;;;;;;;;;;;;;19.09;44.82;100712.36;104341;1097;76530;-55
2021/05/29 10:10:29;;;;;;;;;;;;;;;19.34;45.12;100712.94;104338;1096;77448;-54
2021/05/29 10:12:37;;;;;;;;;;;;;;;19.26;44.08;100710.56;104332;1096;78030;-55
2021/05/29 10:14:46;;;;;;;;;;;;;;;18.91;44.29;100705.08;104369;1096;77401;-54
2021/05/29 10:16:52;;;;;;;;;;;;;;;19.25;45.03;100707.02;104343;1096;77065;-54
2021/05/29 10:19:06;;;;;;;;;;;;;;;19.64;44.98;100702.69;104342;1096;78023;-53
2021/05/29 10:21:14;;;;;;;;;;;;;;;20.08;43.40;100706.63;104334;1096;77824;-53
2021/05/29 10:23:23;;;;;;;;;;;;;;;20.06;43.88;100707.95;104330;1096;77455;-53
2021/05/29 10:25:29;;;;;;;;;;;;;;;19.97;43.93;100699.27;104323;1096;78197;-53
2021/05/29 10:27:34;;;;;;;;;;;;;;;20.22;44.14;100690.70;104325;1096;77501;-54
2021/05/29 10:29:40;;;;;;;;;;;;;;;20.52;43.79;100694.89;104364;1096;77676;-54
2021/05/29 10:31:48;;;;;;;;;;;;;;;20.72;43.60;100691.67;104323;1096;76832;-54
2021/05/29 10:33:53;;;;;;;;;;;;;;;20.90;43.22;100694.19;104334;1097;78288;-58
2021/05/29 10:36:01;;;;;;;;;;;;;;;20.81;42.92;100692.09;104291;1096;78439;-58
2021/05/29 10:38:07;;;;;;;;;;;;;;;20.82;42.63;100694.58;104330;1096;77999;-60
2021/05/29 10:40:22;;;;;;;;;;;;;;;21.08;42.37;100691.20;104348;1096;76696;-59
2021/05/29 10:42:32;;;;;;;;;;;;;;;21.25;41.75;100693.94;104339;1096;77168;-58
2021/05/29 10:44:41;;;;;;;;;;;;;;;20.90;41.29;100688.70;104326;1097;76940;-58
2021/05/29 10:47:13;;;;;;;;;;;;;;;20.99;41.66;100697.33;104288;1097;78340;-58
2021/05/29 10:49:52;;;;;;;;;;;;;;;20.92;41.11;100699.42;104350;1096;78223;-54
2021/05/29 10:51:57;;;;;;;;;;;;;;;20.75;39.44;100690.34;104370;1096;77008;-60
2021/05/29 10:54:11;;;;;;;;;;;;;;;20.30;39.71;100680.20;104326;1096;77603;-60